sensor_id;sensor_type;location;lat;lon;timestamp;P1;durP1;ratioP1;P2;durP2;ratioP2
20880;SDS011;10600;53.096;8.802;2022-10-16T00:00:46;5.15;;;2.63;;
20880;SDS011;10600;53.096;8.802;2022-10-16T00:01:47;6.88;;;3.85;;
20880;SDS011;10600;53.096;8.802;2022-10-16T00:02:48;7.75;;;2.63;;
20880;SDS011;10600;53.096;8.802;2022-10-16T00:03:48;6.82;;;2.63;;
20880;SDS011;10600;53.096;8.802;2022-10-16T00:04:49;8.00;;;2.78;;
20880;SDS011;10600;53.096;8.802;2022-10-16T00:05:50;4.63;;;2.55;;
20880;SDS011;10600;53.096;8.802;2022-10-16T00:06:50;4.95;;;2.80;;
20880;SDS011;10600;53.096;8.802;2022-10-16T00:07:51;7.20;;;2.65;;
20880;SDS011;10600;53.096;8.802;2022-10-16T00:08:52;4.70;;;2.97;;
20880;SDS011;10600;53.096;8.802;2022-10-16T00:09:53;6.68;;;2.97;;
20880;SDS011;10600;53.096;8.802;2022-10-16T00:10:58;6.78;;;2.97;;
20880;SDS011;10600;53.096;8.802;2022-10-16T00:12:00;4.50;;;2.45;;
20880;SDS011;10600;53.096;8.802;2022-10-16T00:13:01;5.45;;;2.70;;
20880;SDS011;10600;53.096;8.802;2022-10-16T00:14:03;8.02;;;2.88;;
20880;SDS011;10600;53.096;8.802;2022-10-16T00:15:06;4.70;;;2.65;;
20880;SDS011;10600;53.096;8.802;2022-10-16T00:16:08;5.82;;;2.70;;
20880;SDS011;10600;53.096;8.802;2022-10-16T00:17:09;8.35;;;2.72;;
20880;SDS011;10600;53.096;8.802;2022-10-16T00:18:10;9.05;;;2.88;;
20880;SDS011;10600;53.096;8.802;2022-10-16T00:19:11;6.38;;;2.50;;
20880;SDS011;10600;53.096;8.802;2022-10-16T00:20:12;6.20;;;2.97;;
20880;SDS011;10600;53.096;8.802;2022-10-16T00:21:14;7.95;;;2.47;;
20880;SDS011;10600;53.096;8.802;2022-10-16T00:22:16;4.57;;;2.30;;
20880;SDS011;10600;53.096;8.802;2022-10-16T00:23:17;8.07;;;2.85;;
20880;SDS011;10600;53.096;8.802;2022-10-16T00:24:18;6.63;;;2.90;;
20880;SDS011;10600;53.096;8.802;2022-10-16T00:25:19;6.50;;;2.88;;
20880;SDS011;10600;53.096;8.802;2022-10-16T00:26:20;4.43;;;2.67;;
20880;SDS011;10600;53.096;8.802;2022-10-16T00:27:21;9.05;;;2.97;;
20880;SDS011;10600;53.096;8.802;2022-10-16T00:28:22;5.70;;;2.88;;
20880;SDS011;10600;53.096;8.802;2022-10-16T00:29:23;9.00;;;2.83;;
20880;SDS011;10600;53.096;8.802;2022-10-16T00:30:24;5.32;;;2.83;;
20880;SDS011;10600;53.096;8.802;2022-10-16T00:31:26;4.57;;;2.55;;
20880;SDS011;10600;53.096;8.802;2022-10-16T00:32:27;4.55;;;2.53;;
20880;SDS011;10600;53.096;8.802;2022-10-16T00:33:28;4.35;;;2.50;;
20880;SDS011;10600;53.096;8.802;2022-10-16T00:34:29;6.78;;;2.60;;
20880;SDS011;10600;53.096;8.802;2022-10-16T00:35:30;7.05;;;2.88;;
20880;SDS011;10600;53.096;8.802;2022-10-16T00:36:31;6.03;;;2.53;;
20880;SDS011;10600;53.096;8.802;2022-10-16T00:37:32;5.82;;;2.72;;
20880;SDS011;10600;53.096;8.802;2022-10-16T00:38:32;4.22;;;2.28;;
20880;SDS011;10600;53.096;8.802;2022-10-16T00:39:33;5.32;;;3.20;;
20880;SDS011;10600;53.096;8.802;2022-10-16T00:40:34;5.80;;;2.45;;
20880;SDS011;10600;53.096;8.802;2022-10-16T00:41:35;5.18;;;2.67;;
20880;SDS011;10600;53.096;8.802;2022-10-16T00:42:35;9.60;;;3.72;;
20880;SDS011;10600;53.096;8.802;2022-10-16T00:43:39;7.22;;;2.75;;
20880;SDS011;10600;53.096;8.802;2022-10-16T00:44:54;3.72;;;2.75;;
20880;SDS011;10600;53.096;8.802;2022-10-16T00:45:57;4.53;;;2.70;;
20880;SDS011;10600;53.096;8.802;2022-10-16T00:46:57;5.05;;;2.60;;
20880;SDS011;10600;53.096;8.802;2022-10-16T00:47:58;4.65;;;2.80;;
20880;SDS011;10600;53.096;8.802;2022-10-16T00:49:01;7.03;;;3.70;;
20880;SDS011;10600;53.096;8.802;2022-10-16T00:50:08;6.35;;;2.90;;
20880;SDS011;10600;53.096;8.802;2022-10-16T00:51:13;6.28;;;2.63;;
20880;SDS011;10600;53.096;8.802;2022-10-16T00:52:15;8.23;;;2.97;;
20880;SDS011;10600;53.096;8.802;2022-10-16T00:53:16;8.30;;;2.60;;
20880;SDS011;10600;53.096;8.802;2022-10-16T00:54:19;11.18;;;3.35;;
20880;SDS011;10600;53.096;8.802;2022-10-16T00:55:23;4.18;;;2.47;;
20880;SDS011;10600;53.096;8.802;2022-10-16T00:56:25;9.43;;;3.70;;
20880;SDS011;10600;53.096;8.802;2022-10-16T00:57:26;6.10;;;2.80;;
20880;SDS011;10600;53.096;8.802;2022-10-16T00:58:27;6.07;;;2.83;;
20880;SDS011;10600;53.096;8.802;2022-10-16T00:59:29;3.65;;;2.63;;
20880;SDS011;10600;53.096;8.802;2022-10-16T01:00:32;6.05;;;2.75;;
20880;SDS011;10600;53.096;8.802;2022-10-16T01:01:32;6.10;;;2.53;;
20880;SDS011;10600;53.096;8.802;2022-10-16T01:02:33;5.95;;;2.85;;
20880;SDS011;10600;53.096;8.802;2022-10-16T01:03:34;7.32;;;2.60;;
20880;SDS011;10600;53.096;8.802;2022-10-16T01:04:38;8.05;;;2.83;;
20880;SDS011;10600;53.096;8.802;2022-10-16T01:05:46;6.05;;;2.63;;
20880;SDS011;10600;53.096;8.802;2022-10-16T01:08:12;7.50;;;3.03;;
20880;SDS011;10600;53.096;8.802;2022-10-16T01:09:53;5.97;;;2.67;;
20880;SDS011;10600;53.096;8.802;2022-10-16T01:11:02;5.10;;;2.85;;
20880;SDS011;10600;53.096;8.802;2022-10-16T01:13:38;9.25;;;3.05;;
20880;SDS011;10600;53.096;8.802;2022-10-16T01:16:09;9.05;;;2.67;;
20880;SDS011;10600;53.096;8.802;2022-10-16T01:17:45;5.30;;;2.80;;
20880;SDS011;10600;53.096;8.802;2022-10-16T01:18:57;5.03;;;3.03;;
20880;SDS011;10600;53.096;8.802;2022-10-16T01:21:33;6.32;;;3.08;;
20880;SDS011;10600;53.096;8.802;2022-10-16T01:22:48;6.72;;;3.08;;
20880;SDS011;10600;53.096;8.802;2022-10-16T01:25:58;6.28;;;3.22;;
20880;SDS011;10600;53.096;8.802;2022-10-16T01:27:13;6.75;;;3.30;;
20880;SDS011;10600;53.096;8.802;2022-10-16T01:28:15;5.15;;;3.20;;
20880;SDS011;10600;53.096;8.802;2022-10-16T01:29:18;5.97;;;3.30;;
20880;SDS011;10600;53.096;8.802;2022-10-16T01:30:26;6.15;;;3.15;;
20880;SDS011;10600;53.096;8.802;2022-10-16T01:31:31;6.80;;;3.50;;
20880;SDS011;10600;53.096;8.802;2022-10-16T01:34:06;10.52;;;2.97;;
20880;SDS011;10600;53.096;8.802;2022-10-16T01:36:39;5.80;;;3.60;;
20880;SDS011;10600;53.096;8.802;2022-10-16T01:37:58;7.75;;;3.15;;
20880;SDS011;10600;53.096;8.802;2022-10-16T01:39:08;6.18;;;3.30;;
20880;SDS011;10600;53.096;8.802;2022-10-16T01:40:12;5.60;;;3.33;;
20880;SDS011;10600;53.096;8.802;2022-10-16T01:41:21;7.32;;;3.67;;
20880;SDS011;10600;53.096;8.802;2022-10-16T01:42:31;5.00;;;2.92;;
20880;SDS011;10600;53.096;8.802;2022-10-16T01:43:40;5.63;;;3.55;;
20880;SDS011;10600;53.096;8.802;2022-10-16T01:44:46;9.05;;;3.30;;
20880;SDS011;10600;53.096;8.802;2022-10-16T01:45:48;6.20;;;3.50;;
20880;SDS011;10600;53.096;8.802;2022-10-16T01:46:50;6.57;;;3.80;;
20880;SDS011;10600;53.096;8.802;2022-10-16T01:47:52;6.40;;;3.30;;
20880;SDS011;10600;53.096;8.802;2022-10-16T01:48:53;6.47;;;3.47;;
20880;SDS011;10600;53.096;8.802;2022-10-16T01:49:55;7.50;;;3.30;;
20880;SDS011;10600;53.096;8.802;2022-10-16T01:51:03;6.20;;;3.42;;
20880;SDS011;10600;53.096;8.802;2022-10-16T01:52:10;5.88;;;3.50;;
20880;SDS011;10600;53.096;8.802;2022-10-16T01:53:15;6.45;;;3.33;;
20880;SDS011;10600;53.096;8.802;2022-10-16T01:54:17;6.72;;;3.42;;
20880;SDS011;10600;53.096;8.802;2022-10-16T01:55:22;6.72;;;4.00;;
20880;SDS011;10600;53.096;8.802;2022-10-16T01:56:29;7.35;;;3.50;;
20880;SDS011;10600;53.096;8.802;2022-10-16T01:57:30;6.70;;;3.42;;
20880;SDS011;10600;53.096;8.802;2022-10-16T01:58:35;8.82;;;3.90;;
20880;SDS011;10600;53.096;8.802;2022-10-16T01:59:44;10.10;;;4.47;;
20880;SDS011;10600;53.096;8.802;2022-10-16T02:00:47;7.50;;;3.60;;
20880;SDS011;10600;53.096;8.802;2022-10-16T02:01:55;7.40;;;3.58;;
20880;SDS011;10600;53.096;8.802;2022-10-16T02:03:00;7.57;;;3.38;;
20880;SDS011;10600;53.096;8.802;2022-10-16T02:04:04;10.27;;;4.00;;
20880;SDS011;10600;53.096;8.802;2022-10-16T02:05:32;9.20;;;3.92;;
20880;SDS011;10600;53.096;8.802;2022-10-16T02:06:38;8.55;;;3.75;;
20880;SDS011;10600;53.096;8.802;2022-10-16T02:07:38;6.00;;;3.65;;
20880;SDS011;10600;53.096;8.802;2022-10-16T02:08:41;6.78;;;3.40;;
20880;SDS011;10600;53.096;8.802;2022-10-16T02:09:44;6.72;;;3.60;;
20880;SDS011;10600;53.096;8.802;2022-10-16T02:10:45;9.05;;;3.92;;
20880;SDS011;10600;53.096;8.802;2022-10-16T02:11:45;7.05;;;3.38;;
20880;SDS011;10600;53.096;8.802;2022-10-16T02:12:53;9.02;;;3.78;;
20880;SDS011;10600;53.096;8.802;2022-10-16T02:14:01;6.50;;;3.45;;
20880;SDS011;10600;53.096;8.802;2022-10-16T02:15:05;8.52;;;3.80;;
20880;SDS011;10600;53.096;8.802;2022-10-16T02:16:07;10.35;;;4.13;;
20880;SDS011;10600;53.096;8.802;2022-10-16T02:17:13;7.05;;;3.80;;
20880;SDS011;10600;53.096;8.802;2022-10-16T02:18:16;9.32;;;3.63;;
20880;SDS011;10600;53.096;8.802;2022-10-16T02:19:17;6.78;;;3.35;;
20880;SDS011;10600;53.096;8.802;2022-10-16T02:20:22;10.27;;;4.20;;
20880;SDS011;10600;53.096;8.802;2022-10-16T02:21:31;11.48;;;3.97;;
20880;SDS011;10600;53.096;8.802;2022-10-16T02:22:46;9.95;;;3.58;;
20880;SDS011;10600;53.096;8.802;2022-10-16T02:24:02;7.07;;;3.85;;
20880;SDS011;10600;53.096;8.802;2022-10-16T02:25:13;6.97;;;4.40;;
20880;SDS011;10600;53.096;8.802;2022-10-16T02:26:23;8.02;;;3.58;;
20880;SDS011;10600;53.096;8.802;2022-10-16T02:27:33;8.55;;;3.78;;
20880;SDS011;10600;53.096;8.802;2022-10-16T02:28:48;8.52;;;3.58;;
20880;SDS011;10600;53.096;8.802;2022-10-16T02:29:57;8.60;;;3.90;;
20880;SDS011;10600;53.096;8.802;2022-10-16T02:31:15;9.70;;;3.75;;
20880;SDS011;10600;53.096;8.802;2022-10-16T02:32:21;5.80;;;3.60;;
20880;SDS011;10600;53.096;8.802;2022-10-16T02:33:24;5.60;;;3.72;;
20880;SDS011;10600;53.096;8.802;2022-10-16T02:34:27;5.10;;;3.65;;
20880;SDS011;10600;53.096;8.802;2022-10-16T02:35:30;7.93;;;3.72;;
20880;SDS011;10600;53.096;8.802;2022-10-16T02:36:32;6.50;;;3.65;;
20880;SDS011;10600;53.096;8.802;2022-10-16T02:37:35;7.10;;;3.80;;
20880;SDS011;10600;53.096;8.802;2022-10-16T02:38:39;5.70;;;4.15;;
20880;SDS011;10600;53.096;8.802;2022-10-16T02:39:40;8.27;;;4.07;;
20880;SDS011;10600;53.096;8.802;2022-10-16T02:40:41;7.85;;;4.32;;
20880;SDS011;10600;53.096;8.802;2022-10-16T02:41:42;9.70;;;3.88;;
20880;SDS011;10600;53.096;8.802;2022-10-16T02:42:43;11.13;;;4.28;;
20880;SDS011;10600;53.096;8.802;2022-10-16T02:43:44;7.10;;;3.85;;
20880;SDS011;10600;53.096;8.802;2022-10-16T02:44:45;7.90;;;3.70;;
20880;SDS011;10600;53.096;8.802;2022-10-16T02:45:45;10.10;;;4.43;;
20880;SDS011;10600;53.096;8.802;2022-10-16T02:46:46;7.70;;;3.70;;
20880;SDS011;10600;53.096;8.802;2022-10-16T02:47:47;7.90;;;3.70;;
20880;SDS011;10600;53.096;8.802;2022-10-16T02:48:48;7.15;;;4.15;;
20880;SDS011;10600;53.096;8.802;2022-10-16T02:49:48;7.05;;;4.00;;
20880;SDS011;10600;53.096;8.802;2022-10-16T02:50:49;9.35;;;3.83;;
20880;SDS011;10600;53.096;8.802;2022-10-16T02:51:49;10.68;;;4.25;;
20880;SDS011;10600;53.096;8.802;2022-10-16T02:52:50;5.82;;;3.58;;
20880;SDS011;10600;53.096;8.802;2022-10-16T02:53:51;8.52;;;4.43;;
20880;SDS011;10600;53.096;8.802;2022-10-16T02:54:51;11.98;;;4.30;;
20880;SDS011;10600;53.096;8.802;2022-10-16T02:55:52;9.68;;;4.57;;
20880;SDS011;10600;53.096;8.802;2022-10-16T02:56:53;10.38;;;5.03;;
20880;SDS011;10600;53.096;8.802;2022-10-16T02:57:53;6.75;;;3.63;;
20880;SDS011;10600;53.096;8.802;2022-10-16T02:58:55;6.03;;;3.70;;
20880;SDS011;10600;53.096;8.802;2022-10-16T02:59:56;6.50;;;3.78;;
20880;SDS011;10600;53.096;8.802;2022-10-16T03:00:57;11.55;;;4.93;;
20880;SDS011;10600;53.096;8.802;2022-10-16T03:01:57;8.25;;;4.03;;
20880;SDS011;10600;53.096;8.802;2022-10-16T03:02:58;8.13;;;4.32;;
20880;SDS011;10600;53.096;8.802;2022-10-16T03:03:59;8.23;;;4.65;;
20880;SDS011;10600;53.096;8.802;2022-10-16T03:04:59;10.85;;;4.30;;
20880;SDS011;10600;53.096;8.802;2022-10-16T03:06:00;6.85;;;4.28;;
20880;SDS011;10600;53.096;8.802;2022-10-16T03:07:01;10.35;;;4.75;;
20880;SDS011;10600;53.096;8.802;2022-10-16T03:08:02;8.88;;;4.45;;
20880;SDS011;10600;53.096;8.802;2022-10-16T03:09:02;11.65;;;4.35;;
20880;SDS011;10600;53.096;8.802;2022-10-16T03:10:03;8.93;;;4.65;;
20880;SDS011;10600;53.096;8.802;2022-10-16T03:11:04;9.32;;;4.50;;
20880;SDS011;10600;53.096;8.802;2022-10-16T03:12:05;11.40;;;4.30;;
20880;SDS011;10600;53.096;8.802;2022-10-16T03:13:06;6.65;;;4.65;;
20880;SDS011;10600;53.096;8.802;2022-10-16T03:14:07;10.63;;;4.25;;
20880;SDS011;10600;53.096;8.802;2022-10-16T03:15:08;9.60;;;4.30;;
20880;SDS011;10600;53.096;8.802;2022-10-16T03:16:08;8.38;;;4.82;;
20880;SDS011;10600;53.096;8.802;2022-10-16T03:17:09;8.52;;;4.55;;
20880;SDS011;10600;53.096;8.802;2022-10-16T03:18:10;8.93;;;4.65;;
20880;SDS011;10600;53.096;8.802;2022-10-16T03:19:10;8.45;;;4.53;;
20880;SDS011;10600;53.096;8.802;2022-10-16T03:20:11;8.07;;;4.32;;
20880;SDS011;10600;53.096;8.802;2022-10-16T03:21:12;5.85;;;4.15;;
20880;SDS011;10600;53.096;8.802;2022-10-16T03:22:12;7.93;;;4.65;;
20880;SDS011;10600;53.096;8.802;2022-10-16T03:23:13;7.18;;;4.40;;
20880;SDS011;10600;53.096;8.802;2022-10-16T03:24:14;8.05;;;4.47;;
20880;SDS011;10600;53.096;8.802;2022-10-16T03:25:14;9.65;;;4.43;;
20880;SDS011;10600;53.096;8.802;2022-10-16T03:26:15;10.15;;;4.60;;
20880;SDS011;10600;53.096;8.802;2022-10-16T03:27:16;9.73;;;4.60;;
20880;SDS011;10600;53.096;8.802;2022-10-16T03:28:17;9.82;;;4.80;;
20880;SDS011;10600;53.096;8.802;2022-10-16T03:29:18;8.45;;;4.35;;
20880;SDS011;10600;53.096;8.802;2022-10-16T03:30:18;7.78;;;4.90;;
20880;SDS011;10600;53.096;8.802;2022-10-16T03:31:19;10.13;;;5.05;;
20880;SDS011;10600;53.096;8.802;2022-10-16T03:32:19;9.43;;;5.20;;
20880;SDS011;10600;53.096;8.802;2022-10-16T03:33:21;9.77;;;4.47;;
20880;SDS011;10600;53.096;8.802;2022-10-16T03:34:22;8.20;;;4.80;;
20880;SDS011;10600;53.096;8.802;2022-10-16T03:35:23;7.75;;;4.20;;
20880;SDS011;10600;53.096;8.802;2022-10-16T03:36:24;9.98;;;4.78;;
20880;SDS011;10600;53.096;8.802;2022-10-16T03:37:24;11.52;;;4.70;;
20880;SDS011;10600;53.096;8.802;2022-10-16T03:38:25;8.20;;;4.68;;
20880;SDS011;10600;53.096;8.802;2022-10-16T03:39:26;9.10;;;4.78;;
20880;SDS011;10600;53.096;8.802;2022-10-16T03:40:27;8.05;;;5.47;;
20880;SDS011;10600;53.096;8.802;2022-10-16T03:41:27;8.95;;;5.38;;
20880;SDS011;10600;53.096;8.802;2022-10-16T03:42:28;9.07;;;5.28;;
20880;SDS011;10600;53.096;8.802;2022-10-16T03:43:29;8.55;;;4.80;;
20880;SDS011;10600;53.096;8.802;2022-10-16T03:44:30;12.50;;;5.20;;
20880;SDS011;10600;53.096;8.802;2022-10-16T03:45:30;12.38;;;5.20;;
20880;SDS011;10600;53.096;8.802;2022-10-16T03:46:31;12.57;;;5.53;;
20880;SDS011;10600;53.096;8.802;2022-10-16T03:47:32;10.13;;;5.30;;
20880;SDS011;10600;53.096;8.802;2022-10-16T03:48:33;9.95;;;5.57;;
20880;SDS011;10600;53.096;8.802;2022-10-16T03:49:34;11.57;;;5.35;;
20880;SDS011;10600;53.096;8.802;2022-10-16T03:50:35;9.52;;;5.25;;
20880;SDS011;10600;53.096;8.802;2022-10-16T03:51:35;9.43;;;5.45;;
20880;SDS011;10600;53.096;8.802;2022-10-16T03:52:36;13.10;;;5.75;;
20880;SDS011;10600;53.096;8.802;2022-10-16T03:53:37;12.80;;;5.63;;
20880;SDS011;10600;53.096;8.802;2022-10-16T03:54:37;10.45;;;5.72;;
20880;SDS011;10600;53.096;8.802;2022-10-16T03:55:38;11.70;;;6.03;;
20880;SDS011;10600;53.096;8.802;2022-10-16T03:56:41;15.73;;;6.22;;
20880;SDS011;10600;53.096;8.802;2022-10-16T03:57:42;9.02;;;5.68;;
20880;SDS011;10600;53.096;8.802;2022-10-16T03:58:42;11.15;;;5.53;;
20880;SDS011;10600;53.096;8.802;2022-10-16T03:59:43;10.85;;;5.93;;
20880;SDS011;10600;53.096;8.802;2022-10-16T04:00:45;9.32;;;5.97;;
20880;SDS011;10600;53.096;8.802;2022-10-16T04:01:47;13.20;;;6.45;;
20880;SDS011;10600;53.096;8.802;2022-10-16T04:02:47;14.95;;;6.07;;
20880;SDS011;10600;53.096;8.802;2022-10-16T04:03:48;12.15;;;6.40;;
20880;SDS011;10600;53.096;8.802;2022-10-16T04:04:49;15.13;;;6.95;;
20880;SDS011;10600;53.096;8.802;2022-10-16T04:05:49;15.55;;;7.05;;
20880;SDS011;10600;53.096;8.802;2022-10-16T04:06:50;12.27;;;6.93;;
20880;SDS011;10600;53.096;8.802;2022-10-16T04:07:51;13.05;;;6.63;;
20880;SDS011;10600;53.096;8.802;2022-10-16T04:08:52;12.68;;;6.80;;
20880;SDS011;10600;53.096;8.802;2022-10-16T04:09:53;11.30;;;6.60;;
20880;SDS011;10600;53.096;8.802;2022-10-16T04:10:53;13.68;;;7.38;;
20880;SDS011;10600;53.096;8.802;2022-10-16T04:11:54;15.52;;;7.03;;
20880;SDS011;10600;53.096;8.802;2022-10-16T04:12:55;13.48;;;7.90;;
20880;SDS011;10600;53.096;8.802;2022-10-16T04:13:55;13.60;;;7.53;;
20880;SDS011;10600;53.096;8.802;2022-10-16T04:14:56;12.85;;;8.20;;
20880;SDS011;10600;53.096;8.802;2022-10-16T04:15:57;13.95;;;6.95;;
20880;SDS011;10600;53.096;8.802;2022-10-16T04:16:58;15.45;;;7.63;;
20880;SDS011;10600;53.096;8.802;2022-10-16T04:17:58;20.60;;;8.55;;
20880;SDS011;10600;53.096;8.802;2022-10-16T04:18:59;15.75;;;8.50;;
20880;SDS011;10600;53.096;8.802;2022-10-16T04:20:00;16.77;;;8.88;;
20880;SDS011;10600;53.096;8.802;2022-10-16T04:21:03;17.42;;;8.77;;
20880;SDS011;10600;53.096;8.802;2022-10-16T04:22:05;15.80;;;8.90;;
20880;SDS011;10600;53.096;8.802;2022-10-16T04:23:06;12.70;;;8.15;;
20880;SDS011;10600;53.096;8.802;2022-10-16T04:24:06;13.95;;;8.70;;
20880;SDS011;10600;53.096;8.802;2022-10-16T04:25:07;17.40;;;8.70;;
20880;SDS011;10600;53.096;8.802;2022-10-16T04:26:08;17.33;;;9.40;;
20880;SDS011;10600;53.096;8.802;2022-10-16T04:27:10;19.55;;;9.88;;
20880;SDS011;10600;53.096;8.802;2022-10-16T04:28:11;19.73;;;9.43;;
20880;SDS011;10600;53.096;8.802;2022-10-16T04:29:11;17.58;;;9.73;;
20880;SDS011;10600;53.096;8.802;2022-10-16T04:30:12;20.92;;;10.10;;
20880;SDS011;10600;53.096;8.802;2022-10-16T04:31:13;20.55;;;10.18;;
20880;SDS011;10600;53.096;8.802;2022-10-16T04:32:14;21.40;;;11.13;;
20880;SDS011;10600;53.096;8.802;2022-10-16T04:33:15;20.10;;;11.30;;
20880;SDS011;10600;53.096;8.802;2022-10-16T04:34:15;18.45;;;10.65;;
20880;SDS011;10600;53.096;8.802;2022-10-16T04:35:19;23.13;;;11.35;;
20880;SDS011;10600;53.096;8.802;2022-10-16T04:36:21;24.73;;;11.93;;
20880;SDS011;10600;53.096;8.802;2022-10-16T04:37:25;21.05;;;10.90;;
20880;SDS011;10600;53.096;8.802;2022-10-16T04:38:26;18.30;;;10.93;;
20880;SDS011;10600;53.096;8.802;2022-10-16T04:39:28;21.88;;;12.38;;
20880;SDS011;10600;53.096;8.802;2022-10-16T04:40:29;18.25;;;11.05;;
20880;SDS011;10600;53.096;8.802;2022-10-16T04:41:32;22.17;;;11.57;;
20880;SDS011;10600;53.096;8.802;2022-10-16T04:42:33;22.63;;;12.95;;
20880;SDS011;10600;53.096;8.802;2022-10-16T04:43:34;22.45;;;12.18;;
20880;SDS011;10600;53.096;8.802;2022-10-16T04:44:34;18.60;;;12.55;;
20880;SDS011;10600;53.096;8.802;2022-10-16T04:45:35;22.77;;;12.95;;
20880;SDS011;10600;53.096;8.802;2022-10-16T04:46:36;21.00;;;12.95;;
20880;SDS011;10600;53.096;8.802;2022-10-16T04:47:36;22.88;;;13.32;;
20880;SDS011;10600;53.096;8.802;2022-10-16T04:48:37;21.40;;;12.23;;
20880;SDS011;10600;53.096;8.802;2022-10-16T04:49:38;23.27;;;13.30;;
20880;SDS011;10600;53.096;8.802;2022-10-16T04:50:38;22.63;;;13.02;;
20880;SDS011;10600;53.096;8.802;2022-10-16T04:51:40;23.10;;;13.15;;
20880;SDS011;10600;53.096;8.802;2022-10-16T04:52:40;23.92;;;13.52;;
20880;SDS011;10600;53.096;8.802;2022-10-16T04:53:41;23.50;;;13.85;;
20880;SDS011;10600;53.096;8.802;2022-10-16T04:54:42;25.52;;;13.43;;
20880;SDS011;10600;53.096;8.802;2022-10-16T04:55:45;22.83;;;12.57;;
20880;SDS011;10600;53.096;8.802;2022-10-16T04:56:45;27.83;;;14.57;;
20880;SDS011;10600;53.096;8.802;2022-10-16T04:57:50;31.10;;;14.13;;
20880;SDS011;10600;53.096;8.802;2022-10-16T04:58:51;28.35;;;14.65;;
20880;SDS011;10600;53.096;8.802;2022-10-16T04:59:52;24.80;;;13.35;;
20880;SDS011;10600;53.096;8.802;2022-10-16T05:00:53;28.15;;;14.68;;
20880;SDS011;10600;53.096;8.802;2022-10-16T05:01:53;25.05;;;14.77;;
20880;SDS011;10600;53.096;8.802;2022-10-16T05:02:54;25.40;;;15.07;;
20880;SDS011;10600;53.096;8.802;2022-10-16T05:03:54;27.45;;;14.93;;
20880;SDS011;10600;53.096;8.802;2022-10-16T05:04:55;27.52;;;15.02;;
20880;SDS011;10600;53.096;8.802;2022-10-16T05:05:56;24.27;;;14.48;;
20880;SDS011;10600;53.096;8.802;2022-10-16T05:06:56;28.42;;;14.85;;
20880;SDS011;10600;53.096;8.802;2022-10-16T05:07:57;24.58;;;14.13;;
20880;SDS011;10600;53.096;8.802;2022-10-16T05:08:57;24.13;;;14.80;;
20880;SDS011;10600;53.096;8.802;2022-10-16T05:09:58;26.73;;;16.73;;
20880;SDS011;10600;53.096;8.802;2022-10-16T05:10:59;30.48;;;16.17;;
20880;SDS011;10600;53.096;8.802;2022-10-16T05:12:00;26.92;;;15.18;;
20880;SDS011;10600;53.096;8.802;2022-10-16T05:13:00;29.17;;;16.70;;
20880;SDS011;10600;53.096;8.802;2022-10-16T05:14:01;26.17;;;15.30;;
20880;SDS011;10600;53.096;8.802;2022-10-16T05:15:02;30.33;;;15.63;;
20880;SDS011;10600;53.096;8.802;2022-10-16T05:16:03;32.35;;;16.50;;
20880;SDS011;10600;53.096;8.802;2022-10-16T05:17:04;28.65;;;15.63;;
20880;SDS011;10600;53.096;8.802;2022-10-16T05:18:05;26.38;;;15.57;;
20880;SDS011;10600;53.096;8.802;2022-10-16T05:19:06;23.63;;;14.63;;
20880;SDS011;10600;53.096;8.802;2022-10-16T05:20:06;27.42;;;15.55;;
20880;SDS011;10600;53.096;8.802;2022-10-16T05:21:07;29.73;;;15.25;;
20880;SDS011;10600;53.096;8.802;2022-10-16T05:22:08;24.75;;;14.70;;
20880;SDS011;10600;53.096;8.802;2022-10-16T05:23:09;27.00;;;14.43;;
20880;SDS011;10600;53.096;8.802;2022-10-16T05:24:12;28.42;;;15.10;;
20880;SDS011;10600;53.096;8.802;2022-10-16T05:25:13;24.45;;;15.02;;
20880;SDS011;10600;53.096;8.802;2022-10-16T05:26:14;31.00;;;15.82;;
20880;SDS011;10600;53.096;8.802;2022-10-16T05:27:15;26.63;;;17.48;;
20880;SDS011;10600;53.096;8.802;2022-10-16T05:28:19;23.20;;;14.75;;
20880;SDS011;10600;53.096;8.802;2022-10-16T05:29:19;29.23;;;14.90;;
20880;SDS011;10600;53.096;8.802;2022-10-16T05:30:20;30.15;;;15.80;;
20880;SDS011;10600;53.096;8.802;2022-10-16T05:31:21;32.72;;;17.20;;
20880;SDS011;10600;53.096;8.802;2022-10-16T05:32:22;28.25;;;15.45;;
20880;SDS011;10600;53.096;8.802;2022-10-16T05:33:24;31.88;;;16.13;;
20880;SDS011;10600;53.096;8.802;2022-10-16T05:34:25;26.40;;;15.55;;
20880;SDS011;10600;53.096;8.802;2022-10-16T05:35:26;25.58;;;14.57;;
20880;SDS011;10600;53.096;8.802;2022-10-16T05:36:27;23.60;;;14.90;;
20880;SDS011;10600;53.096;8.802;2022-10-16T05:37:28;28.00;;;16.35;;
20880;SDS011;10600;53.096;8.802;2022-10-16T05:38:28;28.70;;;17.20;;
20880;SDS011;10600;53.096;8.802;2022-10-16T05:39:29;28.75;;;15.80;;
20880;SDS011;10600;53.096;8.802;2022-10-16T05:40:30;30.83;;;17.17;;
20880;SDS011;10600;53.096;8.802;2022-10-16T05:41:30;24.52;;;15.90;;
20880;SDS011;10600;53.096;8.802;2022-10-16T05:42:31;31.27;;;15.98;;
20880;SDS011;10600;53.096;8.802;2022-10-16T05:43:32;34.55;;;16.92;;
20880;SDS011;10600;53.096;8.802;2022-10-16T05:44:33;25.73;;;15.90;;
20880;SDS011;10600;53.096;8.802;2022-10-16T05:45:33;30.77;;;17.38;;
20880;SDS011;10600;53.096;8.802;2022-10-16T05:46:34;27.33;;;17.05;;
20880;SDS011;10600;53.096;8.802;2022-10-16T05:47:35;27.85;;;16.58;;
20880;SDS011;10600;53.096;8.802;2022-10-16T05:48:35;29.75;;;16.85;;
20880;SDS011;10600;53.096;8.802;2022-10-16T05:49:36;29.05;;;16.88;;
20880;SDS011;10600;53.096;8.802;2022-10-16T05:50:37;27.83;;;16.13;;
20880;SDS011;10600;53.096;8.802;2022-10-16T05:51:37;30.05;;;17.20;;
20880;SDS011;10600;53.096;8.802;2022-10-16T05:52:38;24.92;;;15.88;;
20880;SDS011;10600;53.096;8.802;2022-10-16T05:53:39;28.13;;;17.67;;
20880;SDS011;10600;53.096;8.802;2022-10-16T05:54:41;36.97;;;18.00;;
20880;SDS011;10600;53.096;8.802;2022-10-16T05:55:41;30.35;;;17.90;;
20880;SDS011;10600;53.096;8.802;2022-10-16T05:56:42;28.13;;;16.92;;
20880;SDS011;10600;53.096;8.802;2022-10-16T05:57:43;25.73;;;16.73;;
20880;SDS011;10600;53.096;8.802;2022-10-16T05:58:43;33.30;;;17.88;;
20880;SDS011;10600;53.096;8.802;2022-10-16T05:59:44;29.58;;;17.10;;
20880;SDS011;10600;53.096;8.802;2022-10-16T06:00:52;28.58;;;15.82;;
20880;SDS011;10600;53.096;8.802;2022-10-16T06:01:55;28.60;;;16.05;;
20880;SDS011;10600;53.096;8.802;2022-10-16T06:02:56;29.42;;;17.45;;
20880;SDS011;10600;53.096;8.802;2022-10-16T06:03:57;29.83;;;17.35;;
20880;SDS011;10600;53.096;8.802;2022-10-16T06:04:58;28.50;;;16.70;;
20880;SDS011;10600;53.096;8.802;2022-10-16T06:05:58;28.55;;;16.42;;
20880;SDS011;10600;53.096;8.802;2022-10-16T06:06:59;31.23;;;17.80;;
20880;SDS011;10600;53.096;8.802;2022-10-16T06:08:02;30.33;;;18.02;;
20880;SDS011;10600;53.096;8.802;2022-10-16T06:09:03;33.45;;;17.70;;
20880;SDS011;10600;53.096;8.802;2022-10-16T06:10:04;27.23;;;17.08;;
20880;SDS011;10600;53.096;8.802;2022-10-16T06:11:07;28.90;;;17.15;;
20880;SDS011;10600;53.096;8.802;2022-10-16T06:12:09;29.40;;;17.52;;
20880;SDS011;10600;53.096;8.802;2022-10-16T06:13:10;31.50;;;18.08;;
20880;SDS011;10600;53.096;8.802;2022-10-16T06:14:11;30.55;;;17.75;;
20880;SDS011;10600;53.096;8.802;2022-10-16T06:15:12;29.17;;;17.08;;
20880;SDS011;10600;53.096;8.802;2022-10-16T06:16:13;31.48;;;17.33;;
20880;SDS011;10600;53.096;8.802;2022-10-16T06:17:14;27.15;;;17.48;;
20880;SDS011;10600;53.096;8.802;2022-10-16T06:18:15;29.58;;;17.38;;
20880;SDS011;10600;53.096;8.802;2022-10-16T06:19:15;29.58;;;17.10;;
20880;SDS011;10600;53.096;8.802;2022-10-16T06:20:17;28.27;;;16.17;;
20880;SDS011;10600;53.096;8.802;2022-10-16T06:21:19;27.45;;;17.92;;
20880;SDS011;10600;53.096;8.802;2022-10-16T06:22:21;26.42;;;16.00;;
20880;SDS011;10600;53.096;8.802;2022-10-16T06:23:22;27.42;;;16.15;;